createdAt,value
2022-11-23T00:00:42.150Z,10.82
2022-11-23T00:03:16.494Z,12.45
2022-11-23T00:05:43.500Z,13.13
2022-11-23T00:08:10.409Z,13.40
2022-11-23T00:10:37.550Z,14.40
2022-11-23T00:13:04.785Z,11.27
2022-11-23T00:15:32.583Z,4.85
2022-11-23T00:18:02.716Z,11.15
2022-11-23T00:20:29.796Z,8.88
2022-11-23T00:22:57.291Z,13.70
2022-11-23T00:25:24.243Z,15.45
2022-11-23T00:27:51.159Z,12.60
2022-11-23T00:30:18.117Z,10.02
2022-11-23T00:32:45.065Z,11.32
2022-11-23T00:35:12.081Z,9.60
2022-11-23T00:37:39.098Z,12.70
2022-11-23T00:40:06.864Z,11.05
2022-11-23T00:42:37.835Z,15.00
2022-11-23T00:45:05.618Z,14.63
2022-11-23T00:47:33.929Z,14.05
2022-11-23T00:50:00.893Z,11.45
2022-11-23T00:52:27.824Z,8.20
2022-11-23T00:54:54.823Z,12.18
2022-11-23T00:57:21.776Z,9.13
2022-11-23T00:59:49.106Z,8.13
2022-11-23T01:02:16.132Z,10.13
2022-11-23T01:04:43.123Z,12.57
2022-11-23T01:07:10.389Z,13.65
2022-11-23T01:09:37.368Z,10.52
2022-11-23T01:12:06.719Z,12.30
2022-11-23T01:14:33.713Z,10.43
2022-11-23T01:17:04.242Z,11.80
2022-11-23T01:19:34.891Z,11.32
2022-11-23T01:22:01.877Z,12.40
2022-11-23T01:24:28.967Z,9.80
2022-11-23T01:26:56.154Z,12.32
2022-11-23T01:29:24.027Z,9.32
2022-11-23T01:31:51.043Z,9.07
2022-11-23T01:34:18.139Z,9.82
2022-11-23T01:36:45.777Z,13.43
2022-11-23T01:39:13.476Z,10.52
2022-11-23T01:41:43.207Z,7.72
2022-11-23T01:44:31.134Z,10.63
2022-11-23T01:47:00.452Z,9.25
2022-11-23T01:49:36.210Z,8.93
2022-11-23T01:52:09.753Z,8.45
2022-11-23T01:54:51.477Z,12.18
2022-11-23T01:57:22.898Z,8.23
2022-11-23T01:59:51.009Z,9.68
2022-11-23T02:02:18.725Z,10.07
2022-11-23T02:04:48.739Z,8.50
2022-11-23T02:07:18.932Z,6.18
2022-11-23T02:09:47.728Z,6.85
2022-11-23T02:12:15.576Z,10.50
2022-11-23T02:14:44.214Z,9.02
2022-11-23T02:17:11.618Z,7.95
2022-11-23T02:20:06.216Z,9.75
2022-11-23T02:22:51.294Z,10.23
2022-11-23T02:25:39.454Z,6.25
2022-11-23T02:28:07.077Z,7.22
2022-11-23T02:30:36.628Z,10.10
2022-11-23T02:33:07.139Z,10.27
2022-11-23T02:35:35.027Z,6.60
2022-11-23T02:38:05.052Z,8.75
2022-11-23T02:40:36.103Z,8.57
2022-11-23T02:43:03.424Z,5.82
2022-11-23T02:45:49.898Z,5.28
2022-11-23T02:48:17.877Z,7.88
2022-11-23T02:50:45.447Z,4.72
2022-11-23T02:53:13.318Z,4.47
2022-11-23T02:55:40.353Z,7.70
2022-11-23T02:58:08.000Z,8.30
2022-11-23T03:00:35.759Z,7.35
2022-11-23T03:03:03.559Z,4.45
2022-11-23T03:05:30.860Z,8.38
2022-11-23T03:07:57.994Z,8.20
2022-11-23T03:10:25.166Z,8.82
2022-11-23T03:12:55.531Z,9.55
2022-11-23T03:15:24.085Z,5.30
2022-11-23T03:17:52.216Z,6.40
2022-11-23T03:20:20.572Z,7.32
2022-11-23T03:22:50.124Z,5.03
2022-11-23T03:25:18.757Z,6.55
2022-11-23T03:27:48.920Z,8.25
2022-11-23T03:30:16.162Z,9.13
2022-11-23T03:32:43.678Z,8.68
2022-11-23T03:35:10.738Z,7.28
2022-11-23T03:37:50.617Z,9.20
2022-11-23T03:40:17.680Z,7.35
2022-11-23T03:43:03.774Z,8.50
2022-11-23T03:45:32.766Z,7.70
2022-11-23T03:48:00.180Z,7.50
2022-11-23T03:50:29.728Z,7.07
2022-11-23T03:52:57.129Z,6.72
2022-11-23T03:55:24.104Z,8.30
2022-11-23T03:57:59.625Z,8.20
2022-11-23T04:00:29.999Z,6.93
2022-11-23T04:02:58.460Z,8.20
2022-11-23T04:05:45.365Z,6.35
2022-11-23T04:08:22.343Z,6.95
2022-11-23T04:10:50.720Z,11.50
2022-11-23T04:13:22.782Z,4.28
2022-11-23T04:15:49.991Z,8.45
2022-11-23T04:18:17.206Z,9.10
2022-11-23T04:20:44.285Z,8.52
2022-11-23T04:23:13.583Z,7.90
2022-11-23T04:25:42.065Z,7.28
2022-11-23T04:28:09.903Z,6.63
2022-11-23T04:30:37.363Z,6.75
2022-11-23T04:33:04.360Z,7.90
2022-11-23T04:35:31.453Z,9.55
2022-11-23T04:37:58.711Z,7.18
2022-11-23T04:40:29.083Z,5.32
2022-11-23T04:43:01.552Z,6.65
2022-11-23T04:45:31.754Z,4.97
2022-11-23T04:48:03.367Z,8.73
2022-11-23T04:50:34.181Z,11.00
2022-11-23T04:53:01.290Z,11.65
2022-11-23T04:55:36.815Z,9.40
2022-11-23T04:58:04.433Z,6.78
2022-11-23T05:00:34.176Z,8.52
2022-11-23T05:03:03.356Z,4.93
2022-11-23T05:05:32.846Z,5.07
2022-11-23T05:08:00.662Z,6.93
2022-11-23T05:10:40.886Z,5.97
2022-11-23T05:13:08.474Z,6.97
2022-11-23T05:15:35.825Z,7.00
2022-11-23T05:18:07.575Z,10.00
2022-11-23T05:20:36.116Z,8.73
2022-11-23T05:23:03.303Z,9.73
2022-11-23T05:25:32.303Z,5.25
2022-11-23T05:28:11.390Z,6.38
2022-11-23T05:30:50.522Z,4.78
2022-11-23T05:33:17.857Z,7.95
2022-11-23T05:35:45.175Z,7.43
2022-11-23T05:38:12.276Z,7.30
2022-11-23T05:40:39.505Z,6.18
2022-11-23T05:43:07.923Z,7.68
2022-11-23T05:45:35.863Z,4.47
2022-11-23T05:48:03.964Z,5.00
2022-11-23T05:50:53.761Z,5.38
2022-11-23T05:53:34.798Z,6.63
2022-11-23T05:56:24.590Z,7.05
2022-11-23T05:59:05.375Z,4.15
2022-11-23T06:01:35.335Z,6.88
2022-11-23T06:04:04.097Z,6.35
2022-11-23T06:06:36.395Z,4.20
2022-11-23T06:09:04.097Z,11.65
2022-11-23T06:11:32.570Z,7.80
2022-11-23T06:14:07.773Z,7.13
2022-11-23T06:16:39.248Z,3.88
2022-11-23T06:19:30.345Z,5.80
2022-11-23T06:21:58.522Z,6.22
2022-11-23T06:24:27.239Z,6.95
2022-11-23T06:27:19.941Z,5.07
2022-11-23T06:29:49.204Z,7.78
2022-11-23T06:32:16.734Z,5.30
2022-11-23T06:34:43.759Z,6.78
2022-11-23T06:37:11.206Z,7.47
2022-11-23T06:39:38.339Z,5.72
2022-11-23T06:42:31.367Z,7.03
2022-11-23T06:44:54.243Z,10.10
2022-11-23T06:47:26.431Z,6.85
2022-11-23T06:49:55.506Z,5.53
2022-11-23T06:52:27.567Z,5.68
2022-11-23T06:54:55.201Z,6.97
2022-11-23T06:57:24.157Z,6.15
2022-11-23T06:59:51.449Z,6.75
2022-11-23T07:02:24.145Z,6.47
2022-11-23T07:04:53.500Z,8.13
2022-11-23T07:07:21.275Z,7.03
2022-11-23T07:09:57.698Z,6.75
2022-11-23T07:12:40.872Z,5.10
2022-11-23T07:15:09.170Z,6.47
2022-11-23T07:17:41.753Z,7.32
2022-11-23T07:20:12.643Z,7.38
2022-11-23T07:25:45.040Z,6.78
2022-11-23T07:49:47.877Z,4.50
2022-11-23T07:57:01.460Z,6.50
2022-11-23T08:09:20.108Z,5.30
2022-11-23T09:21:57.872Z,10.20
2022-11-23T09:24:28.167Z,8.93
2022-11-23T09:26:57.809Z,10.13
2022-11-23T09:29:28.576Z,7.85
2022-11-23T09:31:57.904Z,8.93
2022-11-23T09:34:26.717Z,6.78
2022-11-23T09:36:56.359Z,6.13
2022-11-23T09:39:23.450Z,6.50
2022-11-23T09:42:28.885Z,7.38
2022-11-23T09:45:20.961Z,8.10
2022-11-23T09:47:51.938Z,7.53
2022-11-23T09:50:51.389Z,8.23
2022-11-23T09:53:29.769Z,7.72
2022-11-23T09:55:58.467Z,7.53
2022-11-23T09:58:35.575Z,8.15
2022-11-23T10:01:05.673Z,9.10
2022-11-23T10:03:43.909Z,8.48
2022-11-23T10:06:51.366Z,8.90
2022-11-23T10:09:47.180Z,7.28
2022-11-23T10:12:39.792Z,8.93
2022-11-23T10:15:20.927Z,7.95
2022-11-23T10:18:05.962Z,7.22
2022-11-23T10:20:44.704Z,6.72
2022-11-23T10:23:26.780Z,9.07
2022-11-23T10:25:54.250Z,8.95
2022-11-23T10:28:23.366Z,8.43
2022-11-23T10:31:14.917Z,9.02
2022-11-23T10:33:54.002Z,7.50
2022-11-23T10:36:22.156Z,9.40
2022-11-23T10:39:05.636Z,6.65
2022-11-23T10:45:25.102Z,10.52
2022-11-23T10:48:34.626Z,8.70
2022-11-23T10:51:26.872Z,8.00
2022-11-23T10:54:05.238Z,8.52
2022-11-23T10:56:35.944Z,11.13
2022-11-23T10:59:03.985Z,11.43
2022-11-23T11:01:31.652Z,9.68
2022-11-23T11:04:07.082Z,10.48
2022-11-23T11:06:36.499Z,12.05
2022-11-23T11:09:21.404Z,6.25
2022-11-23T11:11:57.534Z,9.65
2022-11-23T11:14:24.642Z,10.20
2022-11-23T11:17:00.480Z,12.43
2022-11-23T11:19:35.633Z,11.10
2022-11-23T11:22:37.180Z,11.75
2022-11-23T11:25:09.776Z,9.27
2022-11-23T11:27:50.881Z,8.23
2022-11-23T11:30:26.671Z,9.50
2022-11-23T11:33:01.691Z,9.90
2022-11-23T11:35:38.324Z,15.13
2022-11-23T11:38:38.077Z,14.80
2022-11-23T11:41:32.964Z,10.88
2022-11-23T11:44:13.545Z,9.73
2022-11-23T11:46:46.397Z,9.20
2022-11-23T11:49:21.793Z,10.80
2022-11-23T11:52:09.079Z,9.13
2022-11-23T11:54:53.550Z,10.50
2022-11-23T11:57:30.985Z,8.15
2022-11-23T12:00:01.738Z,6.03
2022-11-23T12:02:46.175Z,6.68
2022-11-23T12:05:33.438Z,5.50
2022-11-23T12:08:33.761Z,6.03
2022-11-23T12:11:06.229Z,10.50
2022-11-23T12:13:41.173Z,11.57
2022-11-23T12:16:37.353Z,7.97
2022-11-23T12:19:20.563Z,7.43
2022-11-23T12:22:04.064Z,6.60
2022-11-23T12:24:52.384Z,10.95
2022-11-23T12:27:51.823Z,12.13
2022-11-23T12:30:55.956Z,13.65
2022-11-23T12:33:53.854Z,13.45
2022-11-23T12:36:55.627Z,10.98
2022-11-23T12:39:28.573Z,10.02
2022-11-23T12:42:29.290Z,8.32
2022-11-23T12:45:24.397Z,10.57
2022-11-23T12:47:58.587Z,10.23
2022-11-23T12:51:13.047Z,11.68
2022-11-23T12:54:28.737Z,11.85
2022-11-23T12:57:01.645Z,7.97
2022-11-23T13:00:27.208Z,11.52
2022-11-23T13:03:30.877Z,10.57
2022-11-23T13:06:07.369Z,13.50
2022-11-23T13:09:12.224Z,14.23
2022-11-23T13:12:17.631Z,11.52
2022-11-23T13:15:14.741Z,10.00
2022-11-23T13:18:01.173Z,12.45
2022-11-23T13:20:49.871Z,10.57
2022-11-23T13:23:21.761Z,11.68
2022-11-23T13:26:15.012Z,11.03
2022-11-23T13:28:43.977Z,11.50
2022-11-23T13:31:17.614Z,6.45
2022-11-23T13:33:47.041Z,8.52
2022-11-23T13:36:56.556Z,7.68
2022-11-23T13:39:53.234Z,9.73
2022-11-23T13:42:20.682Z,10.55
2022-11-23T13:44:48.293Z,15.77
2022-11-23T13:47:16.386Z,15.10
2022-11-23T13:49:47.839Z,15.23
2022-11-23T13:52:25.887Z,15.55
2022-11-23T13:55:08.923Z,12.95
2022-11-23T13:57:39.848Z,12.88
2022-11-23T14:00:46.944Z,15.55
2022-11-23T14:03:43.274Z,13.50
2022-11-23T14:06:26.630Z,9.70
2022-11-23T14:09:08.947Z,11.90
2022-11-23T14:12:04.332Z,10.65
2022-11-23T14:15:09.875Z,10.27
2022-11-23T14:24:26.811Z,17.35
2022-11-23T14:30:43.969Z,20.88
2022-11-23T14:33:19.664Z,22.80
2022-11-23T14:36:13.263Z,21.98
2022-11-23T14:39:18.157Z,20.75
2022-11-23T14:41:50.190Z,16.63
2022-11-23T14:44:26.536Z,19.17
2022-11-23T14:47:07.276Z,20.38
2022-11-23T14:49:35.648Z,22.17
2022-11-23T14:52:05.561Z,19.02
2022-11-23T14:54:33.652Z,21.23
2022-11-23T14:57:03.795Z,20.40
2022-11-23T14:59:38.129Z,19.48
2022-11-23T15:02:17.632Z,23.40
2022-11-23T15:05:11.539Z,25.95
2022-11-23T15:07:53.263Z,19.13
2022-11-23T15:10:43.764Z,53.45
2022-11-23T15:13:47.945Z,23.95
2022-11-23T15:16:17.754Z,28.77
2022-11-23T15:18:45.380Z,30.67
2022-11-23T15:21:12.414Z,31.55
2022-11-23T15:23:49.770Z,32.88
2022-11-23T15:29:36.295Z,46.80
2022-11-23T15:32:30.605Z,68.55
2022-11-23T15:35:01.878Z,81.63
2022-11-23T15:37:29.551Z,60.83
2022-11-23T15:39:57.225Z,49.22
2022-11-23T15:42:25.937Z,53.58
2022-11-23T15:44:55.033Z,57.92
2022-11-23T15:47:31.042Z,69.57
2022-11-23T15:50:08.657Z,59.90
2022-11-23T15:52:37.718Z,65.70
2022-11-23T15:55:14.027Z,59.70
2022-11-23T15:57:42.079Z,60.90
2022-11-23T16:00:22.610Z,57.58
2022-11-23T16:02:50.170Z,56.42
2022-11-23T16:05:23.054Z,50.75
2022-11-23T16:10:32.867Z,48.75
2022-11-23T16:13:03.042Z,43.63
2022-11-23T16:15:38.987Z,49.35
2022-11-23T16:18:14.254Z,51.90
2022-11-23T16:20:47.015Z,51.67
2022-11-23T16:23:21.635Z,49.30
2022-11-23T16:26:04.486Z,50.67
2022-11-23T16:28:33.963Z,50.47
2022-11-23T16:31:01.259Z,63.78
2022-11-23T16:33:28.970Z,66.78
2022-11-23T16:35:56.347Z,58.35
2022-11-23T16:38:24.734Z,71.97
2022-11-23T16:40:52.222Z,75.47
2022-11-23T16:43:19.434Z,70.72
2022-11-23T16:45:49.165Z,55.05
2022-11-23T16:48:25.855Z,53.65
2022-11-23T16:50:55.048Z,46.67
2022-11-23T16:53:22.548Z,47.13
2022-11-23T16:56:00.484Z,46.95
2022-11-23T16:58:32.127Z,53.22
2022-11-23T17:01:01.668Z,46.42
2022-11-23T17:03:29.907Z,48.65
2022-11-23T17:05:57.352Z,73.10
2022-11-23T17:08:24.684Z,51.58
2022-11-23T17:10:52.314Z,44.97
2022-11-23T17:13:24.422Z,42.45
2022-11-23T17:15:52.206Z,51.70
2022-11-23T17:18:20.561Z,51.53
2022-11-23T17:20:49.988Z,59.50
2022-11-23T17:23:17.579Z,52.45
2022-11-23T17:25:45.971Z,47.65
2022-11-23T17:28:21.737Z,47.35
2022-11-23T17:30:49.360Z,48.47
2022-11-23T17:33:18.909Z,52.85
2022-11-23T17:35:46.774Z,48.38
2022-11-23T17:38:23.138Z,62.30
2022-11-23T17:40:53.894Z,60.50
2022-11-23T17:43:22.610Z,50.60
2022-11-23T17:45:49.788Z,48.28
2022-11-23T17:48:17.968Z,45.35
2022-11-23T17:50:47.877Z,47.17
2022-11-23T17:53:20.028Z,42.03
2022-11-23T17:55:50.485Z,39.42
2022-11-23T17:58:17.547Z,42.00
2022-11-23T18:00:54.020Z,34.00
2022-11-23T18:03:22.338Z,40.88
2022-11-23T18:05:49.962Z,37.17
2022-11-23T18:08:18.360Z,34.13
2022-11-23T18:10:45.763Z,32.53
2022-11-23T18:13:13.152Z,35.72
2022-11-23T18:15:40.526Z,39.67
2022-11-23T18:18:08.701Z,33.22
2022-11-23T18:20:36.659Z,38.92
2022-11-23T18:23:06.289Z,38.67
2022-11-23T18:25:33.903Z,38.67
2022-11-23T18:28:01.445Z,41.58
2022-11-23T18:30:29.516Z,36.05
2022-11-23T18:32:56.572Z,38.05
2022-11-23T18:35:23.854Z,38.08
2022-11-23T18:37:50.870Z,36.97
2022-11-23T18:40:18.303Z,35.90
2022-11-23T18:42:45.920Z,46.05
2022-11-23T18:45:13.493Z,63.00
2022-11-23T18:47:41.378Z,50.85
2022-11-23T18:50:11.036Z,46.05
2022-11-23T18:52:41.838Z,35.35
2022-11-23T18:55:10.035Z,42.28
2022-11-23T18:57:40.288Z,38.80
2022-11-23T19:00:08.477Z,38.88
2022-11-23T19:02:35.949Z,60.92
2022-11-23T19:05:03.480Z,43.10
2022-11-23T19:07:30.927Z,48.15
2022-11-23T19:09:58.368Z,66.78
2022-11-23T19:12:25.790Z,54.90
2022-11-23T19:14:54.519Z,47.83
2022-11-23T19:17:22.074Z,42.83
2022-11-23T19:19:49.712Z,57.90
2022-11-23T19:22:17.338Z,59.25
2022-11-23T19:24:46.314Z,63.30
2022-11-23T19:27:13.789Z,47.97
2022-11-23T19:29:41.992Z,52.22
2022-11-23T19:32:10.508Z,49.10
2022-11-23T19:34:39.621Z,50.60
2022-11-23T19:37:07.554Z,43.08
2022-11-23T19:39:37.329Z,50.08
2022-11-23T19:42:04.616Z,55.28
2022-11-23T19:44:33.341Z,53.95
2022-11-23T19:47:03.270Z,50.58
2022-11-23T19:49:32.155Z,49.70
2022-11-23T19:51:59.905Z,55.38
2022-11-23T19:54:28.467Z,53.85
2022-11-23T19:56:55.997Z,55.47
2022-11-23T19:59:28.198Z,50.15
2022-11-23T20:01:55.849Z,52.28
2022-11-23T20:04:26.933Z,47.80
2022-11-23T20:06:56.640Z,45.92
2022-11-23T20:09:24.679Z,55.90
2022-11-23T20:11:53.615Z,51.92
2022-11-23T20:14:21.491Z,58.22
2022-11-23T20:19:34.666Z,53.13
2022-11-23T20:22:02.434Z,45.38
2022-11-23T20:24:31.214Z,47.25
2022-11-23T20:26:58.924Z,43.30
2022-11-23T20:29:28.554Z,39.08
2022-11-23T20:31:59.249Z,42.40
2022-11-23T20:34:27.517Z,46.45
2022-11-23T20:36:55.029Z,49.90
2022-11-23T20:39:22.352Z,57.78
2022-11-23T20:41:50.347Z,59.75
2022-11-23T20:44:20.987Z,48.83
2022-11-23T20:47:04.791Z,50.00
2022-11-23T20:49:32.963Z,46.33
2022-11-23T20:52:01.400Z,49.15
2022-11-23T20:54:29.183Z,45.60
2022-11-23T20:56:59.269Z,45.95
2022-11-23T20:59:26.858Z,43.53
2022-11-23T21:01:56.001Z,38.28
2022-11-23T21:04:24.309Z,39.08
2022-11-23T21:06:52.454Z,45.30
2022-11-23T21:09:21.331Z,51.58
2022-11-23T21:12:08.218Z,47.13
2022-11-23T21:14:38.260Z,42.55
2022-11-23T21:17:07.290Z,48.30
2022-11-23T21:19:35.466Z,43.38
2022-11-23T21:22:12.625Z,39.10
2022-11-23T21:24:52.057Z,41.38
2022-11-23T21:27:23.517Z,41.03
2022-11-23T21:29:51.488Z,50.17
2022-11-23T21:32:18.751Z,44.15
2022-11-23T21:34:46.301Z,57.72
2022-11-23T21:37:14.725Z,46.55
2022-11-23T21:39:52.503Z,54.22
2022-11-23T21:42:20.030Z,48.00
2022-11-23T21:44:48.088Z,48.95
2022-11-23T21:47:16.734Z,54.05
2022-11-23T21:49:48.111Z,53.03
2022-11-23T21:52:15.108Z,55.75
2022-11-23T21:54:48.740Z,52.78
2022-11-23T21:57:17.353Z,54.63
2022-11-23T21:59:44.534Z,50.00
2022-11-23T22:02:14.821Z,47.13
2022-11-23T22:04:41.822Z,44.53
2022-11-23T22:07:10.309Z,47.97
2022-11-23T22:09:38.131Z,52.13
2022-11-23T22:12:05.372Z,45.72
2022-11-23T22:14:33.839Z,46.88
2022-11-23T22:17:02.889Z,42.38
2022-11-23T22:19:30.004Z,50.15
2022-11-23T22:21:57.092Z,52.25
2022-11-23T22:24:24.326Z,51.40
2022-11-23T22:26:52.635Z,57.08
2022-11-23T22:29:19.673Z,61.33
2022-11-23T22:31:50.599Z,65.15
2022-11-23T22:34:17.793Z,53.85
2022-11-23T22:36:50.067Z,68.38
2022-11-23T22:39:18.194Z,58.00
2022-11-23T22:41:45.267Z,50.97
2022-11-23T22:44:12.514Z,58.50
2022-11-23T22:46:40.301Z,55.17
2022-11-23T22:49:07.849Z,57.60
2022-11-23T22:51:35.096Z,59.97
2022-11-23T22:54:02.909Z,52.97
2022-11-23T22:56:31.445Z,50.45
2022-11-23T22:58:59.848Z,51.78
2022-11-23T23:01:29.503Z,47.70
2022-11-23T23:03:59.230Z,48.22
2022-11-23T23:06:29.501Z,50.10
2022-11-23T23:08:59.014Z,48.20
2022-11-23T23:11:27.657Z,47.88
2022-11-23T23:13:56.029Z,47.83
2022-11-23T23:16:25.694Z,43.85
2022-11-23T23:18:55.121Z,43.40
2022-11-23T23:21:26.206Z,34.42
2022-11-23T23:23:57.661Z,34.10
2022-11-23T23:26:28.018Z,39.72
2022-11-23T23:28:58.174Z,37.65
2022-11-23T23:31:27.331Z,36.75
2022-11-23T23:40:27.904Z,31.85
2022-11-23T23:42:58.401Z,33.72
2022-11-23T23:45:25.887Z,38.00
2022-11-23T23:47:54.585Z,37.33
2022-11-23T23:50:21.878Z,32.03
2022-11-23T23:52:49.768Z,33.30
2022-11-23T23:55:17.818Z,35.45
2022-11-23T23:57:46.312Z,35.53
